Terminal Aerodrome Forecast
Issued by NWS

Home | Current Version | Previous Version | Text Only | Print | Product List | Glossary On
Versions: 1 2 3 4 5 6 7 8 9 10 11 12
720
FTUS42 KMLB 302334
TAFFPR
TAF
KFPR 302334Z 3100/3124 13012KT P6SM SKC
     FM310300 17006KT P6SM SKC
     FM311500 19015G22KT P6SM SCT030=

USA.gov is the U.S. government's official web portal to all federal, state and local government web resources and services.